sensor_id;sensor_type;location;lat;lon;timestamp;pressure;altitude;pressure_sealevel;temperature;humidity
52693;BME280;68218;51.012;-1.648;2023-09-19T00:02:19;99897.47;;;13.23;89.07
52693;BME280;68218;51.012;-1.648;2023-09-19T00:04:45;99905.97;;;13.16;89.85
52693;BME280;68218;51.012;-1.648;2023-09-19T00:07:10;99902.09;;;13.22;90.13
52693;BME280;68218;51.012;-1.648;2023-09-19T00:09:35;99902.03;;;13.27;90.76
52693;BME280;68218;51.012;-1.648;2023-09-19T00:12:06;99896.84;;;13.31;91.09
52693;BME280;68218;51.012;-1.648;2023-09-19T00:14:31;99898.13;;;13.39;91.59
52693;BME280;68218;51.012;-1.648;2023-09-19T00:17:01;99893.59;;;13.29;87.38
52693;BME280;68218;51.012;-1.648;2023-09-19T00:19:31;99894.41;;;13.29;88.35
52693;BME280;68218;51.012;-1.648;2023-09-19T00:21:57;99896.84;;;13.31;87.71
52693;BME280;68218;51.012;-1.648;2023-09-19T00:24:23;99906.50;;;13.42;90.50
52693;BME280;68218;51.012;-1.648;2023-09-19T00:26:49;99911.13;;;13.42;90.40
52693;BME280;68218;51.012;-1.648;2023-09-19T00:29:14;99899.31;;;13.27;88.18
52693;BME280;68218;51.012;-1.648;2023-09-19T00:31:44;99902.53;;;13.29;88.25
52693;BME280;68218;51.012;-1.648;2023-09-19T00:34:09;99913.88;;;13.37;89.78
52693;BME280;68218;51.012;-1.648;2023-09-19T00:36:36;99911.97;;;13.37;91.02
52693;BME280;68218;51.012;-1.648;2023-09-19T00:39:04;99912.69;;;13.43;90.91
52693;BME280;68218;51.012;-1.648;2023-09-19T00:41:34;99907.94;;;13.29;89.12
52693;BME280;68218;51.012;-1.648;2023-09-19T00:44:01;99911.22;;;13.32;87.63
52693;BME280;68218;51.012;-1.648;2023-09-19T00:46:27;99916.53;;;13.42;89.78
52693;BME280;68218;51.012;-1.648;2023-09-19T00:48:53;99906.63;;;13.32;91.68
52693;BME280;68218;51.012;-1.648;2023-09-19T00:51:20;99904.97;;;13.31;90.21
52693;BME280;68218;51.012;-1.648;2023-09-19T00:53:47;99906.25;;;13.39;91.87
52693;BME280;68218;51.012;-1.648;2023-09-19T00:56:14;99896.09;;;13.25;89.64
52693;BME280;68218;51.012;-1.648;2023-09-19T00:58:43;99898.00;;;13.25;90.90
52693;BME280;68218;51.012;-1.648;2023-09-19T01:01:09;99901.72;;;13.29;91.99
52693;BME280;68218;51.012;-1.648;2023-09-19T01:03:37;99898.50;;;13.27;90.08
52693;BME280;68218;51.012;-1.648;2023-09-19T01:06:02;99894.75;;;13.23;88.94
52693;BME280;68218;51.012;-1.648;2023-09-19T01:08:28;99895.22;;;13.30;91.41
52693;BME280;68218;51.012;-1.648;2023-09-19T01:13:58;99890.69;;;13.25;89.28
52693;BME280;68218;51.012;-1.648;2023-09-19T01:19:12;99903.94;;;13.27;89.77
52693;BME280;68218;51.012;-1.648;2023-09-19T01:30:16;99888.81;;;13.21;90.88
52693;BME280;68218;51.012;-1.648;2023-09-19T01:32:42;99882.16;;;13.13;90.83
52693;BME280;68218;51.012;-1.648;2023-09-19T01:35:09;99893.56;;;13.10;91.37
52693;BME280;68218;51.012;-1.648;2023-09-19T01:37:38;99889.00;;;13.05;90.97
52693;BME280;68218;51.012;-1.648;2023-09-19T01:40:08;99897.88;;;13.11;90.63
52693;BME280;68218;51.012;-1.648;2023-09-19T01:43:30;99888.38;;;13.14;91.39
52693;BME280;68218;51.012;-1.648;2023-09-19T01:51:42;99900.38;;;13.07;92.18
52693;BME280;68218;51.012;-1.648;2023-09-19T01:54:12;99898.75;;;13.06;92.94
52693;BME280;68218;51.012;-1.648;2023-09-19T01:56:57;99886.13;;;12.97;93.84
52693;BME280;68218;51.012;-1.648;2023-09-19T01:59:30;99896.94;;;12.97;93.37
52693;BME280;68218;51.012;-1.648;2023-09-19T02:01:59;99894.22;;;12.97;94.16
52693;BME280;68218;51.012;-1.648;2023-09-19T02:04:26;99882.50;;;12.82;92.70
52693;BME280;68218;51.012;-1.648;2023-09-19T02:06:52;99888.88;;;12.91;93.87
52693;BME280;68218;51.012;-1.648;2023-09-19T02:09:18;99891.81;;;12.95;94.55
52693;BME280;68218;51.012;-1.648;2023-09-19T02:11:43;99893.50;;;12.91;93.13
52693;BME280;68218;51.012;-1.648;2023-09-19T02:14:09;99899.38;;;12.98;95.66
52693;BME280;68218;51.012;-1.648;2023-09-19T02:16:35;99901.84;;;12.95;93.87
52693;BME280;68218;51.012;-1.648;2023-09-19T02:19:00;99897.72;;;13.02;94.25
52693;BME280;68218;51.012;-1.648;2023-09-19T02:21:26;99898.84;;;12.96;94.00
52693;BME280;68218;51.012;-1.648;2023-09-19T02:23:55;99895.91;;;12.92;95.24
52693;BME280;68218;51.012;-1.648;2023-09-19T02:26:21;99903.69;;;12.99;95.80
52693;BME280;68218;51.012;-1.648;2023-09-19T02:28:47;99902.13;;;12.93;95.25
52693;BME280;68218;51.012;-1.648;2023-09-19T02:31:12;99895.53;;;13.04;95.70
52693;BME280;68218;51.012;-1.648;2023-09-19T02:33:37;99897.47;;;12.99;95.81
52693;BME280;68218;51.012;-1.648;2023-09-19T02:36:04;99890.97;;;13.00;94.67
52693;BME280;68218;51.012;-1.648;2023-09-19T02:38:29;99892.03;;;12.99;95.65
52693;BME280;68218;51.012;-1.648;2023-09-19T02:40:55;99895.88;;;12.98;96.68
52693;BME280;68218;51.012;-1.648;2023-09-19T02:43:21;99889.88;;;13.01;96.99
52693;BME280;68218;51.012;-1.648;2023-09-19T02:45:47;99874.72;;;13.00;95.89
52693;BME280;68218;51.012;-1.648;2023-09-19T02:48:14;99872.28;;;12.98;96.73
52693;BME280;68218;51.012;-1.648;2023-09-19T02:50:40;99870.38;;;12.99;96.39
52693;BME280;68218;51.012;-1.648;2023-09-19T02:53:07;99868.78;;;12.98;96.34
52693;BME280;68218;51.012;-1.648;2023-09-19T02:55:32;99863.59;;;13.01;96.09
52693;BME280;68218;51.012;-1.648;2023-09-19T02:57:57;99867.41;;;13.00;97.43
52693;BME280;68218;51.012;-1.648;2023-09-19T03:00:23;99862.81;;;13.01;96.35
52693;BME280;68218;51.012;-1.648;2023-09-19T03:02:50;99857.84;;;13.08;97.14
52693;BME280;68218;51.012;-1.648;2023-09-19T03:05:18;99852.66;;;13.11;97.18
52693;BME280;68218;51.012;-1.648;2023-09-19T03:07:44;99845.16;;;13.03;95.65
52693;BME280;68218;51.012;-1.648;2023-09-19T03:10:12;99851.94;;;13.06;97.28
52693;BME280;68218;51.012;-1.648;2023-09-19T03:12:37;99844.59;;;13.06;96.72
52693;BME280;68218;51.012;-1.648;2023-09-19T03:15:05;99843.81;;;13.06;95.55
52693;BME280;68218;51.012;-1.648;2023-09-19T03:17:31;99834.00;;;13.10;96.34
52693;BME280;68218;51.012;-1.648;2023-09-19T03:19:57;99845.63;;;13.10;98.04
52693;BME280;68218;51.012;-1.648;2023-09-19T03:22:23;99817.88;;;13.00;97.27
52693;BME280;68218;51.012;-1.648;2023-09-19T03:24:50;99829.16;;;13.07;97.03
52693;BME280;68218;51.012;-1.648;2023-09-19T03:27:15;99838.25;;;13.16;97.28
52693;BME280;68218;51.012;-1.648;2023-09-19T03:29:42;99836.00;;;13.23;97.42
52693;BME280;68218;51.012;-1.648;2023-09-19T03:32:07;99826.47;;;13.26;98.08
52693;BME280;68218;51.012;-1.648;2023-09-19T03:34:36;99823.44;;;13.33;96.51
52693;BME280;68218;51.012;-1.648;2023-09-19T03:37:03;99828.28;;;13.36;98.10
52693;BME280;68218;51.012;-1.648;2023-09-19T03:39:28;99828.44;;;13.44;96.60
52693;BME280;68218;51.012;-1.648;2023-09-19T03:41:54;99829.25;;;13.45;97.05
52693;BME280;68218;51.012;-1.648;2023-09-19T03:44:19;99826.47;;;13.50;98.01
52693;BME280;68218;51.012;-1.648;2023-09-19T03:46:45;99821.19;;;13.59;96.83
52693;BME280;68218;51.012;-1.648;2023-09-19T03:49:10;99815.25;;;13.57;97.32
52693;BME280;68218;51.012;-1.648;2023-09-19T03:51:35;99817.25;;;13.70;97.75
52693;BME280;68218;51.012;-1.648;2023-09-19T03:54:02;99799.34;;;13.69;97.17
52693;BME280;68218;51.012;-1.648;2023-09-19T03:56:29;99791.91;;;13.61;96.00
52693;BME280;68218;51.012;-1.648;2023-09-19T03:58:54;99794.69;;;13.75;97.37
52693;BME280;68218;51.012;-1.648;2023-09-19T04:01:20;99774.69;;;13.71;96.86
52693;BME280;68218;51.012;-1.648;2023-09-19T04:03:45;99780.63;;;13.73;97.65
52693;BME280;68218;51.012;-1.648;2023-09-19T04:06:15;99773.00;;;13.75;98.20
52693;BME280;68218;51.012;-1.648;2023-09-19T04:08:41;99771.09;;;13.75;98.77
52693;BME280;68218;51.012;-1.648;2023-09-19T04:11:07;99770.88;;;13.72;98.36
52693;BME280;68218;51.012;-1.648;2023-09-19T04:13:32;99770.81;;;13.77;99.50
52693;BME280;68218;51.012;-1.648;2023-09-19T04:15:58;99773.34;;;13.87;98.52
52693;BME280;68218;51.012;-1.648;2023-09-19T04:18:23;99763.50;;;13.91;98.37
52693;BME280;68218;51.012;-1.648;2023-09-19T04:20:52;99775.31;;;14.00;98.81
52693;BME280;68218;51.012;-1.648;2023-09-19T04:23:19;99773.69;;;13.99;100.00
52693;BME280;68218;51.012;-1.648;2023-09-19T04:25:47;99766.25;;;14.05;99.00
52693;BME280;68218;51.012;-1.648;2023-09-19T04:28:13;99761.56;;;14.11;99.38
52693;BME280;68218;51.012;-1.648;2023-09-19T04:30:39;99758.47;;;14.17;99.00
52693;BME280;68218;51.012;-1.648;2023-09-19T04:33:05;99763.81;;;14.22;98.72
52693;BME280;68218;51.012;-1.648;2023-09-19T04:35:31;99763.72;;;14.28;99.35
52693;BME280;68218;51.012;-1.648;2023-09-19T04:37:57;99765.91;;;14.26;99.64
52693;BME280;68218;51.012;-1.648;2023-09-19T04:40:23;99766.16;;;14.43;98.72
52693;BME280;68218;51.012;-1.648;2023-09-19T04:42:56;99763.34;;;14.48;98.94
52693;BME280;68218;51.012;-1.648;2023-09-19T04:45:25;99762.72;;;14.51;98.08
52693;BME280;68218;51.012;-1.648;2023-09-19T04:47:51;99768.16;;;14.51;98.55
52693;BME280;68218;51.012;-1.648;2023-09-19T04:50:17;99759.34;;;14.59;99.36
52693;BME280;68218;51.012;-1.648;2023-09-19T04:52:43;99756.84;;;14.63;99.24
52693;BME280;68218;51.012;-1.648;2023-09-19T04:55:14;99752.53;;;14.62;98.15
52693;BME280;68218;51.012;-1.648;2023-09-19T04:57:46;99759.75;;;14.67;99.02
52693;BME280;68218;51.012;-1.648;2023-09-19T05:00:17;99749.91;;;14.71;100.00
52693;BME280;68218;51.012;-1.648;2023-09-19T05:02:45;99751.69;;;14.61;100.00
52693;BME280;68218;51.012;-1.648;2023-09-19T05:05:11;99770.28;;;14.54;100.00
52693;BME280;68218;51.012;-1.648;2023-09-19T05:07:42;99766.16;;;14.57;100.00
52693;BME280;68218;51.012;-1.648;2023-09-19T05:10:08;99757.63;;;14.50;100.00
52693;BME280;68218;51.012;-1.648;2023-09-19T05:12:36;99767.06;;;14.52;100.00
52693;BME280;68218;51.012;-1.648;2023-09-19T05:15:03;99765.13;;;14.53;100.00
52693;BME280;68218;51.012;-1.648;2023-09-19T05:17:29;99766.09;;;14.62;100.00
52693;BME280;68218;51.012;-1.648;2023-09-19T05:19:55;99761.34;;;14.54;100.00
52693;BME280;68218;51.012;-1.648;2023-09-19T05:22:20;99762.88;;;14.60;100.00
52693;BME280;68218;51.012;-1.648;2023-09-19T05:24:46;99753.81;;;14.65;100.00
52693;BME280;68218;51.012;-1.648;2023-09-19T05:27:14;99752.44;;;14.67;100.00
52693;BME280;68218;51.012;-1.648;2023-09-19T05:29:43;99754.19;;;14.58;100.00
52693;BME280;68218;51.012;-1.648;2023-09-19T05:32:10;99756.84;;;14.63;100.00
52693;BME280;68218;51.012;-1.648;2023-09-19T05:34:36;99748.69;;;14.63;100.00
52693;BME280;68218;51.012;-1.648;2023-09-19T05:37:01;99757.13;;;14.61;100.00
52693;BME280;68218;51.012;-1.648;2023-09-19T05:39:27;99755.16;;;14.67;100.00
52693;BME280;68218;51.012;-1.648;2023-09-19T05:41:52;99741.88;;;14.66;100.00
52693;BME280;68218;51.012;-1.648;2023-09-19T05:44:18;99737.25;;;14.66;100.00
52693;BME280;68218;51.012;-1.648;2023-09-19T05:46:43;99735.13;;;14.63;100.00
52693;BME280;68218;51.012;-1.648;2023-09-19T05:49:10;99741.06;;;14.65;100.00
52693;BME280;68218;51.012;-1.648;2023-09-19T05:51:36;99737.81;;;14.77;100.00
52693;BME280;68218;51.012;-1.648;2023-09-19T05:54:01;99728.41;;;14.74;100.00
52693;BME280;68218;51.012;-1.648;2023-09-19T05:56:27;99723.56;;;14.71;100.00
52693;BME280;68218;51.012;-1.648;2023-09-19T05:58:52;99728.41;;;14.74;100.00
52693;BME280;68218;51.012;-1.648;2023-09-19T06:01:18;99724.16;;;14.82;100.00
52693;BME280;68218;51.012;-1.648;2023-09-19T06:03:44;99719.25;;;14.84;100.00
52693;BME280;68218;51.012;-1.648;2023-09-19T06:06:09;99721.34;;;14.73;100.00
52693;BME280;68218;51.012;-1.648;2023-09-19T06:08:35;99730.50;;;14.77;100.00
52693;BME280;68218;51.012;-1.648;2023-09-19T06:11:00;99723.06;;;14.69;100.00
52693;BME280;68218;51.012;-1.648;2023-09-19T06:13:28;99728.09;;;14.76;100.00
52693;BME280;68218;51.012;-1.648;2023-09-19T06:15:55;99721.88;;;14.75;100.00
52693;BME280;68218;51.012;-1.648;2023-09-19T06:18:21;99707.16;;;14.76;100.00
52693;BME280;68218;51.012;-1.648;2023-09-19T06:20:51;99715.63;;;14.75;100.00
52693;BME280;68218;51.012;-1.648;2023-09-19T06:23:17;99712.09;;;14.88;100.00
52693;BME280;68218;51.012;-1.648;2023-09-19T06:25:43;99706.84;;;14.92;100.00
52693;BME280;68218;51.012;-1.648;2023-09-19T06:28:09;99709.25;;;14.93;100.00
52693;BME280;68218;51.012;-1.648;2023-09-19T06:30:37;99706.53;;;14.93;100.00
52693;BME280;68218;51.012;-1.648;2023-09-19T06:33:05;99700.81;;;14.95;100.00
52693;BME280;68218;51.012;-1.648;2023-09-19T06:35:33;99703.63;;;14.90;100.00
52693;BME280;68218;51.012;-1.648;2023-09-19T06:37:58;99696.59;;;14.89;100.00
52693;BME280;68218;51.012;-1.648;2023-09-19T06:40:24;99706.47;;;14.85;100.00
52693;BME280;68218;51.012;-1.648;2023-09-19T06:42:52;99701.13;;;14.79;100.00
52693;BME280;68218;51.012;-1.648;2023-09-19T06:45:19;99707.75;;;14.87;100.00
52693;BME280;68218;51.012;-1.648;2023-09-19T06:47:51;99702.25;;;14.78;100.00
52693;BME280;68218;51.012;-1.648;2023-09-19T06:50:20;99719.25;;;14.70;100.00
52693;BME280;68218;51.012;-1.648;2023-09-19T06:52:49;99698.03;;;14.72;100.00
52693;BME280;68218;51.012;-1.648;2023-09-19T06:55:16;99699.72;;;14.82;100.00
52693;BME280;68218;51.012;-1.648;2023-09-19T06:57:44;99698.03;;;14.72;100.00
52693;BME280;68218;51.012;-1.648;2023-09-19T07:00:11;99712.50;;;14.82;100.00
52693;BME280;68218;51.012;-1.648;2023-09-19T07:02:44;99690.38;;;14.74;100.00
52693;BME280;68218;51.012;-1.648;2023-09-19T07:05:09;99692.19;;;14.79;100.00
52693;BME280;68218;51.012;-1.648;2023-09-19T07:07:35;99689.75;;;14.91;100.00
52693;BME280;68218;51.012;-1.648;2023-09-19T07:10:02;99693.88;;;14.89;100.00
52693;BME280;68218;51.012;-1.648;2023-09-19T07:12:27;99689.66;;;14.96;100.00
52693;BME280;68218;51.012;-1.648;2023-09-19T07:14:53;99698.00;;;15.00;100.00
52693;BME280;68218;51.012;-1.648;2023-09-19T07:17:18;99688.53;;;14.97;100.00
52693;BME280;68218;51.012;-1.648;2023-09-19T07:19:44;99698.38;;;15.07;100.00
52693;BME280;68218;51.012;-1.648;2023-09-19T07:22:10;99696.66;;;15.11;100.00
52693;BME280;68218;51.012;-1.648;2023-09-19T07:24:35;99675.25;;;15.10;100.00
52693;BME280;68218;51.012;-1.648;2023-09-19T07:27:02;99697.38;;;15.03;100.00
52693;BME280;68218;51.012;-1.648;2023-09-19T07:29:28;99697.00;;;14.96;100.00
52693;BME280;68218;51.012;-1.648;2023-09-19T07:31:53;99694.06;;;15.06;100.00
52693;BME280;68218;51.012;-1.648;2023-09-19T07:34:19;99675.16;;;15.01;100.00
52693;BME280;68218;51.012;-1.648;2023-09-19T07:36:47;99680.25;;;15.03;100.00
52693;BME280;68218;51.012;-1.648;2023-09-19T07:39:13;99680.38;;;14.97;100.00
52693;BME280;68218;51.012;-1.648;2023-09-19T07:41:38;99678.88;;;15.05;100.00
52693;BME280;68218;51.012;-1.648;2023-09-19T07:44:04;99678.09;;;14.91;100.00
52693;BME280;68218;51.012;-1.648;2023-09-19T07:46:30;99685.41;;;15.04;100.00
52693;BME280;68218;51.012;-1.648;2023-09-19T07:48:57;99681.69;;;15.00;100.00
52693;BME280;68218;51.012;-1.648;2023-09-19T07:51:22;99676.28;;;14.86;100.00
52693;BME280;68218;51.012;-1.648;2023-09-19T07:53:48;99672.38;;;14.78;100.00
52693;BME280;68218;51.012;-1.648;2023-09-19T07:56:13;99666.16;;;14.78;100.00
52693;BME280;68218;51.012;-1.648;2023-09-19T07:58:40;99680.50;;;14.92;100.00
52693;BME280;68218;51.012;-1.648;2023-09-19T08:01:10;99682.09;;;14.93;100.00
52693;BME280;68218;51.012;-1.648;2023-09-19T08:03:36;99679.47;;;15.02;100.00
52693;BME280;68218;51.012;-1.648;2023-09-19T08:06:06;99669.72;;;15.01;100.00
52693;BME280;68218;51.012;-1.648;2023-09-19T08:08:32;99664.72;;;14.94;100.00
52693;BME280;68218;51.012;-1.648;2023-09-19T08:10:57;99672.94;;;15.03;100.00
52693;BME280;68218;51.012;-1.648;2023-09-19T08:13:24;99662.50;;;14.96;100.00
52693;BME280;68218;51.012;-1.648;2023-09-19T08:15:50;99659.06;;;15.05;100.00
52693;BME280;68218;51.012;-1.648;2023-09-19T08:18:16;99675.06;;;15.06;100.00
52693;BME280;68218;51.012;-1.648;2023-09-19T08:20:42;99671.16;;;15.21;100.00
52693;BME280;68218;51.012;-1.648;2023-09-19T08:23:08;99654.06;;;15.21;100.00
52693;BME280;68218;51.012;-1.648;2023-09-19T08:25:34;99660.47;;;15.25;100.00
52693;BME280;68218;51.012;-1.648;2023-09-19T08:27:59;99652.84;;;15.27;100.00
52693;BME280;68218;51.012;-1.648;2023-09-19T08:30:28;99647.41;;;15.27;100.00
52693;BME280;68218;51.012;-1.648;2023-09-19T08:32:59;99661.13;;;15.44;100.00
52693;BME280;68218;51.012;-1.648;2023-09-19T08:35:24;99662.59;;;15.28;100.00
52693;BME280;68218;51.012;-1.648;2023-09-19T08:37:50;99671.09;;;15.35;100.00
52693;BME280;68218;51.012;-1.648;2023-09-19T08:40:16;99655.69;;;15.44;100.00
52693;BME280;68218;51.012;-1.648;2023-09-19T08:42:52;99659.84;;;15.50;100.00
52693;BME280;68218;51.012;-1.648;2023-09-19T08:45:19;99659.19;;;15.45;100.00
52693;BME280;68218;51.012;-1.648;2023-09-19T08:50:29;99659.97;;;15.45;100.00
52693;BME280;68218;51.012;-1.648;2023-09-19T08:52:56;99663.34;;;15.42;100.00
52693;BME280;68218;51.012;-1.648;2023-09-19T08:55:28;99667.78;;;15.38;100.00
52693;BME280;68218;51.012;-1.648;2023-09-19T08:58:03;99678.09;;;15.27;100.00
52693;BME280;68218;51.012;-1.648;2023-09-19T09:00:30;99669.56;;;15.43;100.00
52693;BME280;68218;51.012;-1.648;2023-09-19T09:02:56;99665.06;;;15.38;100.00
52693;BME280;68218;51.012;-1.648;2023-09-19T09:05:24;99664.44;;;15.41;100.00
52693;BME280;68218;51.012;-1.648;2023-09-19T09:07:50;99670.66;;;15.42;100.00
52693;BME280;68218;51.012;-1.648;2023-09-19T09:10:22;99670.13;;;15.53;100.00
52693;BME280;68218;51.012;-1.648;2023-09-19T09:12:51;99683.47;;;15.64;100.00
52693;BME280;68218;51.012;-1.648;2023-09-19T09:15:19;99676.16;;;15.50;100.00
52693;BME280;68218;51.012;-1.648;2023-09-19T09:17:50;99674.47;;;15.54;100.00
52693;BME280;68218;51.012;-1.648;2023-09-19T09:20:17;99687.31;;;15.63;100.00
52693;BME280;68218;51.012;-1.648;2023-09-19T09:22:54;99685.88;;;15.65;100.00
52693;BME280;68218;51.012;-1.648;2023-09-19T09:25:20;99686.72;;;15.52;100.00
52693;BME280;68218;51.012;-1.648;2023-09-19T09:28:09;99681.41;;;15.69;100.00
52693;BME280;68218;51.012;-1.648;2023-09-19T09:30:35;99688.53;;;15.79;100.00
52693;BME280;68218;51.012;-1.648;2023-09-19T09:33:10;99694.81;;;15.88;100.00
52693;BME280;68218;51.012;-1.648;2023-09-19T09:35:55;99689.03;;;15.81;100.00
52693;BME280;68218;51.012;-1.648;2023-09-19T09:38:45;99688.91;;;15.64;100.00
52693;BME280;68218;51.012;-1.648;2023-09-19T09:41:11;99676.44;;;15.63;100.00
52693;BME280;68218;51.012;-1.648;2023-09-19T09:43:41;99681.91;;;15.71;100.00
52693;BME280;68218;51.012;-1.648;2023-09-19T09:46:18;99677.41;;;15.67;100.00
52693;BME280;68218;51.012;-1.648;2023-09-19T09:48:47;99691.47;;;15.69;100.00
52693;BME280;68218;51.012;-1.648;2023-09-19T09:51:36;99685.25;;;15.68;100.00
52693;BME280;68218;51.012;-1.648;2023-09-19T09:54:13;99681.91;;;15.71;100.00
52693;BME280;68218;51.012;-1.648;2023-09-19T09:56:54;99669.34;;;15.76;100.00
52693;BME280;68218;51.012;-1.648;2023-09-19T09:59:22;99665.56;;;15.85;100.00
52693;BME280;68218;51.012;-1.648;2023-09-19T10:01:49;99664.41;;;15.86;100.00
52693;BME280;68218;51.012;-1.648;2023-09-19T10:05:44;99658.28;;;16.03;100.00
52693;BME280;68218;51.012;-1.648;2023-09-19T10:08:11;99655.59;;;16.12;100.00
52693;BME280;68218;51.012;-1.648;2023-09-19T10:10:39;99649.78;;;16.05;100.00
52693;BME280;68218;51.012;-1.648;2023-09-19T10:13:20;99658.56;;;16.02;100.00
52693;BME280;68218;51.012;-1.648;2023-09-19T10:15:49;99658.75;;;16.05;100.00
52693;BME280;68218;51.012;-1.648;2023-09-19T10:18:26;99640.22;;;16.07;100.00
52693;BME280;68218;51.012;-1.648;2023-09-19T10:20:53;99641.97;;;16.12;100.00
52693;BME280;68218;51.012;-1.648;2023-09-19T10:23:21;99635.16;;;16.23;100.00
52693;BME280;68218;51.012;-1.648;2023-09-19T10:25:51;99631.94;;;16.21;100.00
52693;BME280;68218;51.012;-1.648;2023-09-19T10:28:18;99635.03;;;16.46;100.00
52693;BME280;68218;51.012;-1.648;2023-09-19T10:30:49;99638.50;;;16.20;100.00
52693;BME280;68218;51.012;-1.648;2023-09-19T10:33:19;99635.56;;;16.08;100.00
52693;BME280;68218;51.012;-1.648;2023-09-19T10:35:48;99643.25;;;16.06;100.00
52693;BME280;68218;51.012;-1.648;2023-09-19T10:38:17;99632.97;;;15.94;100.00
52693;BME280;68218;51.012;-1.648;2023-09-19T10:40:49;99644.19;;;16.01;100.00
52693;BME280;68218;51.012;-1.648;2023-09-19T10:43:17;99652.88;;;16.12;100.00
52693;BME280;68218;51.012;-1.648;2023-09-19T10:45:47;99641.28;;;15.98;100.00
52693;BME280;68218;51.012;-1.648;2023-09-19T10:48:18;99655.50;;;15.95;100.00
52693;BME280;68218;51.012;-1.648;2023-09-19T10:50:57;99642.25;;;16.02;100.00
52693;BME280;68218;51.012;-1.648;2023-09-19T10:53:26;99641.31;;;16.06;100.00
52693;BME280;68218;51.012;-1.648;2023-09-19T10:55:56;99643.28;;;16.15;100.00
52693;BME280;68218;51.012;-1.648;2023-09-19T10:58:29;99642.00;;;16.21;100.00
52693;BME280;68218;51.012;-1.648;2023-09-19T11:00:59;99640.25;;;16.16;100.00
52693;BME280;68218;51.012;-1.648;2023-09-19T11:03:31;99652.88;;;16.21;100.00
52693;BME280;68218;51.012;-1.648;2023-09-19T11:06:13;99655.69;;;15.98;100.00
52693;BME280;68218;51.012;-1.648;2023-09-19T11:09:01;99661.13;;;15.98;100.00
52693;BME280;68218;51.012;-1.648;2023-09-19T11:33:22;99656.97;;;16.41;100.00
52693;BME280;68218;51.012;-1.648;2023-09-19T11:49:18;99634.28;;;16.54;100.00
52693;BME280;68218;51.012;-1.648;2023-09-19T11:51:50;99623.72;;;16.61;100.00
52693;BME280;68218;51.012;-1.648;2023-09-19T11:54:17;99597.88;;;16.41;100.00
52693;BME280;68218;51.012;-1.648;2023-09-19T11:56:54;99627.84;;;16.50;100.00
52693;BME280;68218;51.012;-1.648;2023-09-19T11:59:27;99612.94;;;16.39;100.00
52693;BME280;68218;51.012;-1.648;2023-09-19T12:01:55;99624.47;;;16.44;100.00
52693;BME280;68218;51.012;-1.648;2023-09-19T12:04:43;99614.72;;;16.52;100.00
52693;BME280;68218;51.012;-1.648;2023-09-19T12:07:12;99631.06;;;16.43;100.00
52693;BME280;68218;51.012;-1.648;2023-09-19T12:09:42;99622.38;;;16.41;100.00
52693;BME280;68218;51.012;-1.648;2023-09-19T12:12:18;99625.47;;;16.48;100.00
52693;BME280;68218;51.012;-1.648;2023-09-19T12:14:48;99619.50;;;16.38;100.00
52693;BME280;68218;51.012;-1.648;2023-09-19T12:17:13;99621.91;;;16.39;100.00
52693;BME280;68218;51.012;-1.648;2023-09-19T12:19:40;99611.69;;;16.54;100.00
52693;BME280;68218;51.012;-1.648;2023-09-19T12:22:15;99612.50;;;16.54;100.00
52693;BME280;68218;51.012;-1.648;2023-09-19T12:24:41;99609.91;;;16.49;100.00
52693;BME280;68218;51.012;-1.648;2023-09-19T12:27:09;99615.84;;;16.51;100.00
52693;BME280;68218;51.012;-1.648;2023-09-19T12:29:43;99619.38;;;16.60;100.00
52693;BME280;68218;51.012;-1.648;2023-09-19T12:32:09;99619.22;;;16.65;100.00
52693;BME280;68218;51.012;-1.648;2023-09-19T12:34:35;99633.97;;;16.82;100.00
52693;BME280;68218;51.012;-1.648;2023-09-19T12:37:14;99638.31;;;16.74;100.00
52693;BME280;68218;51.012;-1.648;2023-09-19T12:40:07;99640.03;;;16.61;100.00
52693;BME280;68218;51.012;-1.648;2023-09-19T12:42:46;99643.91;;;16.69;100.00
52693;BME280;68218;51.012;-1.648;2023-09-19T12:45:12;99637.16;;;16.66;100.00
52693;BME280;68218;51.012;-1.648;2023-09-19T12:47:39;99640.84;;;16.71;100.00
52693;BME280;68218;51.012;-1.648;2023-09-19T12:50:11;99631.88;;;16.61;100.00
52693;BME280;68218;51.012;-1.648;2023-09-19T12:52:48;99635.84;;;16.55;100.00
52693;BME280;68218;51.012;-1.648;2023-09-19T12:55:22;99640.38;;;16.69;100.00
52693;BME280;68218;51.012;-1.648;2023-09-19T13:00:46;99628.84;;;16.72;100.00
52693;BME280;68218;51.012;-1.648;2023-09-19T13:03:32;99632.19;;;16.69;100.00
52693;BME280;68218;51.012;-1.648;2023-09-19T13:06:01;99628.38;;;16.70;100.00
52693;BME280;68218;51.012;-1.648;2023-09-19T13:08:31;99624.34;;;16.67;100.00
52693;BME280;68218;51.012;-1.648;2023-09-19T13:11:16;99625.50;;;16.75;100.00
52693;BME280;68218;51.012;-1.648;2023-09-19T13:13:51;99634.13;;;16.68;100.00
52693;BME280;68218;51.012;-1.648;2023-09-19T13:16:21;99630.09;;;16.65;100.00
52693;BME280;68218;51.012;-1.648;2023-09-19T13:18:54;99620.66;;;16.54;100.00
52693;BME280;68218;51.012;-1.648;2023-09-19T13:21:32;99600.16;;;16.65;100.00
52693;BME280;68218;51.012;-1.648;2023-09-19T13:24:23;99603.69;;;16.66;100.00
52693;BME280;68218;51.012;-1.648;2023-09-19T13:26:51;99604.34;;;16.63;100.00
52693;BME280;68218;51.012;-1.648;2023-09-19T13:29:16;99607.84;;;16.72;100.00
52693;BME280;68218;51.012;-1.648;2023-09-19T13:31:50;99596.81;;;16.77;100.00
52693;BME280;68218;51.012;-1.648;2023-09-19T13:34:18;99599.53;;;16.60;100.00
52693;BME280;68218;51.012;-1.648;2023-09-19T13:36:45;99615.41;;;16.75;100.00
52693;BME280;68218;51.012;-1.648;2023-09-19T13:39:13;99604.50;;;16.58;100.00
52693;BME280;68218;51.012;-1.648;2023-09-19T13:41:40;99600.13;;;16.48;100.00
52693;BME280;68218;51.012;-1.648;2023-09-19T13:44:07;99610.25;;;16.74;100.00
52693;BME280;68218;51.012;-1.648;2023-09-19T13:46:33;99605.63;;;16.74;100.00
52693;BME280;68218;51.012;-1.648;2023-09-19T13:49:01;99609.31;;;16.70;100.00
52693;BME280;68218;51.012;-1.648;2023-09-19T13:51:29;99601.78;;;16.66;100.00
52693;BME280;68218;51.012;-1.648;2023-09-19T13:53:55;99608.16;;;16.71;100.00